sensor_id;sensor_type;location;lat;lon;timestamp;pressure;altitude;pressure_sealevel;temperature;humidity
59274;BME280;45044;41.572;24.730;2023-02-19T00:01:34;91701.19;;;1.37;100.00
59274;BME280;45044;41.572;24.730;2023-02-19T00:04:05;91714.44;;;1.44;100.00
59274;BME280;45044;41.572;24.730;2023-02-19T00:06:34;91697.97;;;1.58;100.00
59274;BME280;45044;41.572;24.730;2023-02-19T00:09:01;91696.88;;;1.67;100.00
59274;BME280;45044;41.572;24.730;2023-02-19T00:11:30;91691.84;;;1.71;100.00
59274;BME280;45044;41.572;24.730;2023-02-19T00:13:58;91694.13;;;1.64;100.00
59274;BME280;45044;41.572;24.730;2023-02-19T00:16:30;91690.06;;;1.45;100.00
59274;BME280;45044;41.572;24.730;2023-02-19T00:18:58;91682.00;;;1.29;100.00
59274;BME280;45044;41.572;24.730;2023-02-19T00:21:26;91677.41;;;1.26;100.00
59274;BME280;45044;41.572;24.730;2023-02-19T00:23:56;91676.97;;;1.33;100.00
59274;BME280;45044;41.572;24.730;2023-02-19T00:26:24;91675.28;;;1.37;100.00
59274;BME280;45044;41.572;24.730;2023-02-19T00:28:52;91678.16;;;1.44;100.00
59274;BME280;45044;41.572;24.730;2023-02-19T00:31:26;91685.50;;;1.51;100.00
59274;BME280;45044;41.572;24.730;2023-02-19T00:33:58;91684.59;;;1.29;100.00
59274;BME280;45044;41.572;24.730;2023-02-19T00:36:26;91686.56;;;1.05;100.00
59274;BME280;45044;41.572;24.730;2023-02-19T00:38:53;91685.50;;;1.06;100.00
59274;BME280;45044;41.572;24.730;2023-02-19T00:41:21;91687.03;;;1.25;100.00
59274;BME280;45044;41.572;24.730;2023-02-19T00:46:24;91675.88;;;1.42;100.00
59274;BME280;45044;41.572;24.730;2023-02-19T00:48:54;91673.28;;;1.42;100.00
59274;BME280;45044;41.572;24.730;2023-02-19T00:51:23;91669.78;;;1.47;100.00
59274;BME280;45044;41.572;24.730;2023-02-19T00:53:52;91640.69;;;1.24;100.00
59274;BME280;45044;41.572;24.730;2023-02-19T00:56:19;91658.97;;;1.18;100.00
59274;BME280;45044;41.572;24.730;2023-02-19T00:58:47;91657.47;;;1.09;100.00
59274;BME280;45044;41.572;24.730;2023-02-19T01:01:15;91659.13;;;1.13;100.00
59274;BME280;45044;41.572;24.730;2023-02-19T01:03:42;91651.50;;;1.17;100.00
59274;BME280;45044;41.572;24.730;2023-02-19T01:06:10;91658.38;;;1.13;100.00
59274;BME280;45044;41.572;24.730;2023-02-19T01:08:37;91648.31;;;1.02;100.00
59274;BME280;45044;41.572;24.730;2023-02-19T01:11:06;91642.38;;;1.19;100.00
59274;BME280;45044;41.572;24.730;2023-02-19T01:13:34;91653.50;;;1.38;100.00
59274;BME280;45044;41.572;24.730;2023-02-19T01:16:06;91633.81;;;1.37;100.00
59274;BME280;45044;41.572;24.730;2023-02-19T01:18:34;91634.47;;;1.16;100.00
59274;BME280;45044;41.572;24.730;2023-02-19T01:21:12;91623.03;;;1.08;100.00
59274;BME280;45044;41.572;24.730;2023-02-19T01:23:39;91623.19;;;1.21;100.00
59274;BME280;45044;41.572;24.730;2023-02-19T01:26:08;91629.88;;;1.30;100.00
59274;BME280;45044;41.572;24.730;2023-02-19T01:28:35;91605.63;;;1.35;100.00
59274;BME280;45044;41.572;24.730;2023-02-19T01:31:02;91612.81;;;1.29;100.00
59274;BME280;45044;41.572;24.730;2023-02-19T01:33:30;91613.56;;;1.39;100.00
59274;BME280;45044;41.572;24.730;2023-02-19T01:35:57;91606.56;;;1.13;100.00
59274;BME280;45044;41.572;24.730;2023-02-19T01:38:24;91622.59;;;0.70;100.00
59274;BME280;45044;41.572;24.730;2023-02-19T01:40:55;91607.81;;;0.89;100.00
59274;BME280;45044;41.572;24.730;2023-02-19T01:43:23;91616.31;;;0.63;100.00
59274;BME280;45044;41.572;24.730;2023-02-19T01:45:50;91601.88;;;0.70;100.00
59274;BME280;45044;41.572;24.730;2023-02-19T01:51:13;91595.78;;;0.75;100.00
59274;BME280;45044;41.572;24.730;2023-02-19T01:53:44;91591.66;;;0.92;100.00
59274;BME280;45044;41.572;24.730;2023-02-19T01:56:14;91602.16;;;0.51;100.00
59274;BME280;45044;41.572;24.730;2023-02-19T01:58:44;91597.88;;;0.46;100.00
59274;BME280;45044;41.572;24.730;2023-02-19T02:01:11;91602.91;;;0.52;100.00
59274;BME280;45044;41.572;24.730;2023-02-19T02:03:40;91604.31;;;0.58;100.00
59274;BME280;45044;41.572;24.730;2023-02-19T02:06:25;91597.09;;;0.28;100.00
59274;BME280;45044;41.572;24.730;2023-02-19T02:08:55;91602.59;;;0.35;100.00
59274;BME280;45044;41.572;24.730;2023-02-19T02:11:58;91597.56;;;0.30;100.00
59274;BME280;45044;41.572;24.730;2023-02-19T02:14:28;91604.41;;;0.44;100.00
59274;BME280;45044;41.572;24.730;2023-02-19T02:16:59;91606.44;;;0.56;100.00
59274;BME280;45044;41.572;24.730;2023-02-19T02:27:52;91604.16;;;0.81;100.00
59274;BME280;45044;41.572;24.730;2023-02-19T02:30:30;91601.56;;;0.81;100.00
59274;BME280;45044;41.572;24.730;2023-02-19T02:33:09;91607.50;;;0.81;100.00
59274;BME280;45044;41.572;24.730;2023-02-19T02:35:58;91578.72;;;0.56;100.00
59274;BME280;45044;41.572;24.730;2023-02-19T02:38:30;91598.97;;;0.90;100.00
59274;BME280;45044;41.572;24.730;2023-02-19T02:40:58;91603.06;;;0.82;100.00
59274;BME280;45044;41.572;24.730;2023-02-19T02:43:25;91597.47;;;0.89;100.00
59274;BME280;45044;41.572;24.730;2023-02-19T02:45:52;91599.91;;;0.94;100.00
59274;BME280;45044;41.572;24.730;2023-02-19T02:48:23;91602.94;;;0.96;100.00
59274;BME280;45044;41.572;24.730;2023-02-19T02:51:00;91597.28;;;1.03;100.00
59274;BME280;45044;41.572;24.730;2023-02-19T02:54:03;91596.97;;;1.13;100.00
59274;BME280;45044;41.572;24.730;2023-02-19T02:56:50;91592.25;;;1.24;100.00
59274;BME280;45044;41.572;24.730;2023-02-19T02:59:24;91573.53;;;0.92;100.00
59274;BME280;45044;41.572;24.730;2023-02-19T03:01:57;91602.47;;;1.12;100.00
59274;BME280;45044;41.572;24.730;2023-02-19T03:07:30;91597.91;;;1.17;100.00
59274;BME280;45044;41.572;24.730;2023-02-19T03:10:02;91599.56;;;1.22;100.00
59274;BME280;45044;41.572;24.730;2023-02-19T03:12:31;91595.94;;;0.88;100.00
59274;BME280;45044;41.572;24.730;2023-02-19T03:15:20;91581.78;;;0.85;100.00
59274;BME280;45044;41.572;24.730;2023-02-19T03:18:10;91594.38;;;0.51;100.00
59274;BME280;45044;41.572;24.730;2023-02-19T03:20:59;91584.22;;;0.81;100.00
59274;BME280;45044;41.572;24.730;2023-02-19T03:23:30;91590.91;;;0.91;100.00
59274;BME280;45044;41.572;24.730;2023-02-19T03:26:18;91595.34;;;0.91;100.00
59274;BME280;45044;41.572;24.730;2023-02-19T03:28:47;91594.56;;;0.90;100.00
59274;BME280;45044;41.572;24.730;2023-02-19T03:31:37;91592.88;;;0.86;100.00
59274;BME280;45044;41.572;24.730;2023-02-19T03:34:10;91586.50;;;0.74;100.00
59274;BME280;45044;41.572;24.730;2023-02-19T03:36:44;91589.25;;;0.87;100.00
59274;BME280;45044;41.572;24.730;2023-02-19T03:39:14;91587.09;;;0.89;100.00
59274;BME280;45044;41.572;24.730;2023-02-19T03:41:57;91594.25;;;0.92;100.00
59274;BME280;45044;41.572;24.730;2023-02-19T03:44:41;91594.88;;;0.89;100.00
59274;BME280;45044;41.572;24.730;2023-02-19T03:52:44;91605.50;;;0.69;100.00
59274;BME280;45044;41.572;24.730;2023-02-19T03:58:20;91604.00;;;0.51;100.00
59274;BME280;45044;41.572;24.730;2023-02-19T04:00:55;91604.88;;;0.55;100.00
59274;BME280;45044;41.572;24.730;2023-02-19T04:06:13;91614.34;;;0.51;100.00
59274;BME280;45044;41.572;24.730;2023-02-19T04:08:45;91611.75;;;0.59;100.00
59274;BME280;45044;41.572;24.730;2023-02-19T04:11:14;91610.38;;;0.71;100.00
59274;BME280;45044;41.572;24.730;2023-02-19T04:13:57;91612.50;;;0.60;100.00
59274;BME280;45044;41.572;24.730;2023-02-19T04:16:28;91616.78;;;0.74;100.00
59274;BME280;45044;41.572;24.730;2023-02-19T04:19:02;91612.06;;;0.67;100.00
59274;BME280;45044;41.572;24.730;2023-02-19T04:21:32;91619.84;;;0.76;100.00
59274;BME280;45044;41.572;24.730;2023-02-19T04:24:05;91626.97;;;0.52;100.00
59274;BME280;45044;41.572;24.730;2023-02-19T04:26:33;91630.03;;;0.72;100.00
59274;BME280;45044;41.572;24.730;2023-02-19T04:29:01;91622.13;;;0.86;100.00
59274;BME280;45044;41.572;24.730;2023-02-19T04:31:29;91622.44;;;0.93;100.00
59274;BME280;45044;41.572;24.730;2023-02-19T04:33:56;91621.22;;;1.00;100.00
59274;BME280;45044;41.572;24.730;2023-02-19T04:36:23;91621.97;;;1.00;100.00
59274;BME280;45044;41.572;24.730;2023-02-19T04:38:50;91624.13;;;0.98;100.00
59274;BME280;45044;41.572;24.730;2023-02-19T04:41:16;91571.88;;;0.61;100.00
59274;BME280;45044;41.572;24.730;2023-02-19T04:43:43;91629.59;;;0.88;100.00
59274;BME280;45044;41.572;24.730;2023-02-19T04:46:10;91632.47;;;0.77;100.00
59274;BME280;45044;41.572;24.730;2023-02-19T04:48:36;91629.41;;;0.75;100.00
59274;BME280;45044;41.572;24.730;2023-02-19T04:51:05;91641.75;;;0.61;100.00
59274;BME280;45044;41.572;24.730;2023-02-19T04:53:32;91639.75;;;0.57;100.00
59274;BME280;45044;41.572;24.730;2023-02-19T04:56:11;91618.50;;;0.11;100.00
59274;BME280;45044;41.572;24.730;2023-02-19T04:58:39;91638.38;;;0.51;100.00
59274;BME280;45044;41.572;24.730;2023-02-19T05:01:06;91640.69;;;0.62;100.00
59274;BME280;45044;41.572;24.730;2023-02-19T05:03:34;91635.13;;;0.37;100.00
59274;BME280;45044;41.572;24.730;2023-02-19T05:06:06;91636.88;;;0.09;100.00
59274;BME280;45044;41.572;24.730;2023-02-19T05:08:34;91644.50;;;0.15;100.00
59274;BME280;45044;41.572;24.730;2023-02-19T05:11:03;91640.63;;;0.35;100.00
59274;BME280;45044;41.572;24.730;2023-02-19T05:13:30;91640.91;;;0.33;100.00
59274;BME280;45044;41.572;24.730;2023-02-19T05:16:03;91642.63;;;0.38;100.00
59274;BME280;45044;41.572;24.730;2023-02-19T05:18:30;91642.78;;;0.42;100.00
59274;BME280;45044;41.572;24.730;2023-02-19T05:20:58;91632.84;;;0.35;100.00
59274;BME280;45044;41.572;24.730;2023-02-19T05:23:26;91639.44;;;0.41;100.00
59274;BME280;45044;41.572;24.730;2023-02-19T05:25:53;91644.28;;;0.43;100.00
59274;BME280;45044;41.572;24.730;2023-02-19T05:28:20;91648.97;;;0.23;100.00
59274;BME280;45044;41.572;24.730;2023-02-19T05:30:55;91659.38;;;0.00;100.00
59274;BME280;45044;41.572;24.730;2023-02-19T05:33:24;91663.25;;;0.29;100.00
59274;BME280;45044;41.572;24.730;2023-02-19T05:35:53;91660.34;;;0.22;100.00
59274;BME280;45044;41.572;24.730;2023-02-19T05:38:22;91661.13;;;0.22;100.00
59274;BME280;45044;41.572;24.730;2023-02-19T05:40:49;91655.25;;;0.40;100.00
59274;BME280;45044;41.572;24.730;2023-02-19T05:43:16;91661.97;;;0.58;100.00
59274;BME280;45044;41.572;24.730;2023-02-19T05:45:43;91659.72;;;0.75;100.00
59274;BME280;45044;41.572;24.730;2023-02-19T05:48:10;91665.50;;;0.89;100.00
59274;BME280;45044;41.572;24.730;2023-02-19T05:50:37;91668.88;;;1.16;100.00
59274;BME280;45044;41.572;24.730;2023-02-19T05:53:05;91671.63;;;1.29;100.00
59274;BME280;45044;41.572;24.730;2023-02-19T05:55:34;91668.59;;;1.36;100.00
59274;BME280;45044;41.572;24.730;2023-02-19T05:58:01;91674.81;;;1.43;100.00
59274;BME280;45044;41.572;24.730;2023-02-19T06:00:28;91674.03;;;1.52;100.00
59274;BME280;45044;41.572;24.730;2023-02-19T06:02:55;91671.28;;;1.57;100.00
59274;BME280;45044;41.572;24.730;2023-02-19T06:05:22;91685.31;;;1.65;100.00
59274;BME280;45044;41.572;24.730;2023-02-19T06:07:49;91684.38;;;1.70;100.00
59274;BME280;45044;41.572;24.730;2023-02-19T06:10:16;91694.13;;;1.90;100.00
59274;BME280;45044;41.572;24.730;2023-02-19T06:12:43;91688.13;;;1.99;100.00
59274;BME280;45044;41.572;24.730;2023-02-19T06:15:11;91694.47;;;2.19;100.00
59274;BME280;45044;41.572;24.730;2023-02-19T06:17:38;91690.13;;;2.41;100.00
59274;BME280;45044;41.572;24.730;2023-02-19T06:20:05;91698.97;;;2.40;100.00
59274;BME280;45044;41.572;24.730;2023-02-19T06:22:32;91700.06;;;2.69;100.00
59274;BME280;45044;41.572;24.730;2023-02-19T06:24:58;91694.91;;;2.91;100.00
59274;BME280;45044;41.572;24.730;2023-02-19T06:27:25;91697.97;;;3.14;100.00
59274;BME280;45044;41.572;24.730;2023-02-19T06:29:52;91701.75;;;3.17;100.00
59274;BME280;45044;41.572;24.730;2023-02-19T06:32:19;91698.34;;;3.46;100.00
59274;BME280;45044;41.572;24.730;2023-02-19T06:34:46;91693.63;;;4.07;100.00
59274;BME280;45044;41.572;24.730;2023-02-19T06:37:13;91686.84;;;4.90;100.00
59274;BME280;45044;41.572;24.730;2023-02-19T06:39:40;91688.50;;;5.94;100.00
59274;BME280;45044;41.572;24.730;2023-02-19T06:42:06;91691.22;;;6.78;100.00
59274;BME280;45044;41.572;24.730;2023-02-19T06:44:33;91686.88;;;7.58;100.00
59274;BME280;45044;41.572;24.730;2023-02-19T06:47:00;91678.41;;;7.65;100.00
59274;BME280;45044;41.572;24.730;2023-02-19T06:49:27;91680.44;;;8.62;100.00
59274;BME280;45044;41.572;24.730;2023-02-19T06:51:54;91681.47;;;8.81;100.00
59274;BME280;45044;41.572;24.730;2023-02-19T06:54:20;91677.00;;;9.39;90.70
59274;BME280;45044;41.572;24.730;2023-02-19T06:56:47;91669.53;;;9.76;87.18
59274;BME280;45044;41.572;24.730;2023-02-19T06:59:15;91664.59;;;10.09;82.84
59274;BME280;45044;41.572;24.730;2023-02-19T07:01:45;91666.34;;;10.35;82.88
59274;BME280;45044;41.572;24.730;2023-02-19T07:04:12;91674.22;;;10.35;82.59
59274;BME280;45044;41.572;24.730;2023-02-19T07:06:39;91671.97;;;11.50;73.78
59274;BME280;45044;41.572;24.730;2023-02-19T07:09:07;91676.59;;;11.75;71.26
59274;BME280;45044;41.572;24.730;2023-02-19T07:11:35;91674.56;;;10.75;78.56
59274;BME280;45044;41.572;24.730;2023-02-19T07:14:05;91667.72;;;11.27;75.81
59274;BME280;45044;41.572;24.730;2023-02-19T07:16:35;91678.00;;;11.58;71.37
59274;BME280;45044;41.572;24.730;2023-02-19T07:19:02;91670.81;;;11.44;71.63
59274;BME280;45044;41.572;24.730;2023-02-19T07:21:29;91665.28;;;11.71;66.56
59274;BME280;45044;41.572;24.730;2023-02-19T07:23:56;91671.22;;;11.46;71.19
59274;BME280;45044;41.572;24.730;2023-02-19T07:26:23;91670.34;;;11.27;79.07
59274;BME280;45044;41.572;24.730;2023-02-19T07:28:51;91639.84;;;12.70;68.44
59274;BME280;45044;41.572;24.730;2023-02-19T07:31:19;91669.09;;;13.60;61.01
59274;BME280;45044;41.572;24.730;2023-02-19T07:33:46;91653.09;;;14.57;57.15
59274;BME280;45044;41.572;24.730;2023-02-19T07:36:15;91659.28;;;14.89;56.63
59274;BME280;45044;41.572;24.730;2023-02-19T07:38:44;91652.69;;;15.08;57.63
59274;BME280;45044;41.572;24.730;2023-02-19T07:41:11;91652.00;;;16.05;52.29
59274;BME280;45044;41.572;24.730;2023-02-19T07:43:39;91648.94;;;16.62;51.38
59274;BME280;45044;41.572;24.730;2023-02-19T07:46:11;91650.50;;;16.83;51.14
59274;BME280;45044;41.572;24.730;2023-02-19T07:48:40;91653.41;;;17.17;49.97
59274;BME280;45044;41.572;24.730;2023-02-19T07:51:11;91660.88;;;16.74;50.53
59274;BME280;45044;41.572;24.730;2023-02-19T07:53:38;91661.66;;;16.47;50.87
59274;BME280;45044;41.572;24.730;2023-02-19T07:56:06;91652.31;;;16.90;50.35
59274;BME280;45044;41.572;24.730;2023-02-19T07:58:34;91654.44;;;18.04;48.60
59274;BME280;45044;41.572;24.730;2023-02-19T08:01:14;91646.50;;;17.64;48.44
59274;BME280;45044;41.572;24.730;2023-02-19T08:03:42;91646.28;;;18.82;46.35
59274;BME280;45044;41.572;24.730;2023-02-19T08:06:10;91649.09;;;19.55;44.39
59274;BME280;45044;41.572;24.730;2023-02-19T08:08:38;91647.34;;;20.20;42.81
59274;BME280;45044;41.572;24.730;2023-02-19T08:11:05;91639.84;;;20.67;41.10
59274;BME280;45044;41.572;24.730;2023-02-19T08:13:51;91633.06;;;20.89;41.28
59274;BME280;45044;41.572;24.730;2023-02-19T08:16:19;91629.31;;;21.35;40.55
59274;BME280;45044;41.572;24.730;2023-02-19T08:19:06;91627.91;;;21.65;38.93
59274;BME280;45044;41.572;24.730;2023-02-19T08:21:32;91617.91;;;22.43;37.65
59274;BME280;45044;41.572;24.730;2023-02-19T08:23:59;91620.75;;;21.62;36.83
59274;BME280;45044;41.572;24.730;2023-02-19T08:26:26;91624.94;;;19.75;41.48
59274;BME280;45044;41.572;24.730;2023-02-19T08:28:53;91620.41;;;20.54;40.40
59274;BME280;45044;41.572;24.730;2023-02-19T08:31:20;91625.47;;;20.87;39.67
59274;BME280;45044;41.572;24.730;2023-02-19T08:33:46;91616.88;;;20.70;40.39
59274;BME280;45044;41.572;24.730;2023-02-19T08:36:13;91610.41;;;22.28;36.47
59274;BME280;45044;41.572;24.730;2023-02-19T08:38:40;91587.22;;;23.32;36.26
59274;BME280;45044;41.572;24.730;2023-02-19T08:41:09;91592.44;;;24.16;34.86
59274;BME280;45044;41.572;24.730;2023-02-19T08:43:37;91593.59;;;22.69;35.55
59274;BME280;45044;41.572;24.730;2023-02-19T08:46:05;91596.28;;;22.28;36.01
59274;BME280;45044;41.572;24.730;2023-02-19T08:48:32;91588.63;;;22.58;35.67
59274;BME280;45044;41.572;24.730;2023-02-19T08:51:00;91586.31;;;23.54;34.75
59274;BME280;45044;41.572;24.730;2023-02-19T08:53:30;91577.34;;;23.76;34.57
59274;BME280;45044;41.572;24.730;2023-02-19T08:55:57;91578.16;;;25.42;32.73
59274;BME280;45044;41.572;24.730;2023-02-19T08:58:24;91572.09;;;24.93;32.78
59274;BME280;45044;41.572;24.730;2023-02-19T09:00:51;91575.69;;;24.31;32.23
59274;BME280;45044;41.572;24.730;2023-02-19T09:03:18;91576.22;;;23.20;33.60
59274;BME280;45044;41.572;24.730;2023-02-19T09:05:45;91569.03;;;22.80;33.87
59274;BME280;45044;41.572;24.730;2023-02-19T09:08:12;91570.13;;;23.48;33.17
59274;BME280;45044;41.572;24.730;2023-02-19T09:10:39;91574.47;;;24.91;32.12
59274;BME280;45044;41.572;24.730;2023-02-19T09:13:06;91571.25;;;25.26;31.38
59274;BME280;45044;41.572;24.730;2023-02-19T09:15:32;91564.09;;;24.15;31.91
59274;BME280;45044;41.572;24.730;2023-02-19T09:17:59;91561.16;;;23.14;32.61
59274;BME280;45044;41.572;24.730;2023-02-19T09:20:26;91559.31;;;23.76;32.26
59274;BME280;45044;41.572;24.730;2023-02-19T09:22:57;91559.66;;;24.46;32.62
59274;BME280;45044;41.572;24.730;2023-02-19T09:25:24;91551.50;;;23.97;30.72
59274;BME280;45044;41.572;24.730;2023-02-19T09:27:54;91548.34;;;23.08;32.56
59274;BME280;45044;41.572;24.730;2023-02-19T09:30:21;91547.31;;;23.43;31.65
59274;BME280;45044;41.572;24.730;2023-02-19T09:32:48;91552.53;;;22.91;32.52
59274;BME280;45044;41.572;24.730;2023-02-19T09:35:15;91542.09;;;22.83;32.24
59274;BME280;45044;41.572;24.730;2023-02-19T09:37:42;91543.09;;;22.58;31.88
59274;BME280;45044;41.572;24.730;2023-02-19T09:40:17;91549.97;;;22.78;31.57
59274;BME280;45044;41.572;24.730;2023-02-19T09:42:48;91533.72;;;23.56;30.88
59274;BME280;45044;41.572;24.730;2023-02-19T09:45:21;91536.13;;;23.45;32.02
59274;BME280;45044;41.572;24.730;2023-02-19T09:47:53;91536.72;;;23.49;31.71
59274;BME280;45044;41.572;24.730;2023-02-19T09:50:33;91540.91;;;23.41;31.46
59274;BME280;45044;41.572;24.730;2023-02-19T09:53:04;91508.28;;;23.05;30.58
59274;BME280;45044;41.572;24.730;2023-02-19T09:55:38;91531.66;;;23.51;31.32
59274;BME280;45044;41.572;24.730;2023-02-19T09:58:21;91529.75;;;22.86;30.07
59274;BME280;45044;41.572;24.730;2023-02-19T10:00:52;91524.53;;;22.82;30.86
59274;BME280;45044;41.572;24.730;2023-02-19T10:03:28;91523.06;;;23.09;31.23
59274;BME280;45044;41.572;24.730;2023-02-19T10:08:51;91521.88;;;24.16;29.12
59274;BME280;45044;41.572;24.730;2023-02-19T10:11:21;91506.63;;;23.88;31.12
59274;BME280;45044;41.572;24.730;2023-02-19T10:13:51;91500.69;;;23.93;29.69
59274;BME280;45044;41.572;24.730;2023-02-19T10:16:24;91501.56;;;23.90;30.15
59274;BME280;45044;41.572;24.730;2023-02-19T10:18:52;91497.59;;;23.76;29.20
59274;BME280;45044;41.572;24.730;2023-02-19T10:21:24;91488.53;;;24.08;29.85
59274;BME280;45044;41.572;24.730;2023-02-19T10:23:53;91483.06;;;25.15;28.66
59274;BME280;45044;41.572;24.730;2023-02-19T10:26:22;91472.00;;;25.74;27.75
59274;BME280;45044;41.572;24.730;2023-02-19T10:28:49;91470.16;;;25.19;27.97
59274;BME280;45044;41.572;24.730;2023-02-19T10:31:22;91482.00;;;24.97;28.93
59274;BME280;45044;41.572;24.730;2023-02-19T10:33:54;91455.50;;;24.66;27.77
59274;BME280;45044;41.572;24.730;2023-02-19T10:36:37;91469.38;;;24.24;28.32
59274;BME280;45044;41.572;24.730;2023-02-19T10:41:50;91451.19;;;23.51;28.20
59274;BME280;45044;41.572;24.730;2023-02-19T10:44:21;91451.53;;;23.25;28.22
59274;BME280;45044;41.572;24.730;2023-02-19T10:46:52;91450.38;;;22.42;31.21
59274;BME280;45044;41.572;24.730;2023-02-19T10:49:24;91449.34;;;22.39;29.16
59274;BME280;45044;41.572;24.730;2023-02-19T10:52:02;91439.69;;;22.79;29.16
59274;BME280;45044;41.572;24.730;2023-02-19T10:54:36;91436.09;;;22.17;30.73
59274;BME280;45044;41.572;24.730;2023-02-19T10:57:24;91418.97;;;22.23;29.50
59274;BME280;45044;41.572;24.730;2023-02-19T11:00:39;91435.78;;;21.64;30.75
59274;BME280;45044;41.572;24.730;2023-02-19T11:02:48;91422.78;;;21.44;31.11
59274;BME280;45044;41.572;24.730;2023-02-19T11:05:17;91436.91;;;19.44;32.48
59274;BME280;45044;41.572;24.730;2023-02-19T11:08:03;91409.03;;;19.06;33.24
59274;BME280;45044;41.572;24.730;2023-02-19T11:10:38;91433.25;;;19.12;33.28
59274;BME280;45044;41.572;24.730;2023-02-19T11:13:14;91423.56;;;18.75;33.68
59274;BME280;45044;41.572;24.730;2023-02-19T11:15:42;91422.81;;;18.45;34.13
59274;BME280;45044;41.572;24.730;2023-02-19T11:25:54;91413.72;;;19.93;32.60
59274;BME280;45044;41.572;24.730;2023-02-19T11:28:30;91412.09;;;20.89;32.77
59274;BME280;45044;41.572;24.730;2023-02-19T11:31:34;91404.22;;;20.63;32.32
59274;BME280;45044;41.572;24.730;2023-02-19T11:34:22;91400.88;;;20.94;31.57
59274;BME280;45044;41.572;24.730;2023-02-19T11:39:44;91391.00;;;21.46;32.06
59274;BME280;45044;41.572;24.730;2023-02-19T11:42:26;91374.22;;;21.45;31.76
59274;BME280;45044;41.572;24.730;2023-02-19T11:47:54;91384.84;;;20.50;32.15
59274;BME280;45044;41.572;24.730;2023-02-19T11:53:03;91382.66;;;18.69;34.20
59274;BME280;45044;41.572;24.730;2023-02-19T11:58:59;91387.06;;;18.89;35.48
59274;BME280;45044;41.572;24.730;2023-02-19T12:20:36;91361.47;;;20.63;33.65
59274;BME280;45044;41.572;24.730;2023-02-19T12:23:32;91348.09;;;20.31;33.00
59274;BME280;45044;41.572;24.730;2023-02-19T12:26:40;91344.22;;;20.10;34.06
59274;BME280;45044;41.572;24.730;2023-02-19T12:42:48;91332.84;;;19.35;34.17
59274;BME280;45044;41.572;24.730;2023-02-19T12:45:30;91327.00;;;19.14;35.42
59274;BME280;45044;41.572;24.730;2023-02-19T12:50:42;91323.56;;;19.53;34.77
59274;BME280;45044;41.572;24.730;2023-02-19T12:55:52;91326.19;;;18.61;35.49
59274;BME280;45044;41.572;24.730;2023-02-19T12:58:42;91322.31;;;18.36;35.70
59274;BME280;45044;41.572;24.730;2023-02-19T13:01:14;91321.84;;;19.07;37.12
59274;BME280;45044;41.572;24.730;2023-02-19T13:03:52;91315.53;;;18.48;35.72
59274;BME280;45044;41.572;24.730;2023-02-19T13:06:34;91319.09;;;18.71;35.90
59274;BME280;45044;41.572;24.730;2023-02-19T13:09:16;91314.63;;;17.95;36.32
59274;BME280;45044;41.572;24.730;2023-02-19T13:11:49;91305.03;;;18.15;36.70
59274;BME280;45044;41.572;24.730;2023-02-19T13:14:33;91310.19;;;18.05;36.52
59274;BME280;45044;41.572;24.730;2023-02-19T13:17:18;91303.78;;;17.73;36.83
59274;BME280;45044;41.572;24.730;2023-02-19T13:19:50;91304.84;;;18.22;36.68
59274;BME280;45044;41.572;24.730;2023-02-19T13:25:12;91299.84;;;17.48;36.79
59274;BME280;45044;41.572;24.730;2023-02-19T13:28:02;91290.94;;;17.38;37.39
59274;BME280;45044;41.572;24.730;2023-02-19T13:30:39;91285.88;;;17.27;37.20
59274;BME280;45044;41.572;24.730;2023-02-19T13:38:42;91277.25;;;17.40;37.60
59274;BME280;45044;41.572;24.730;2023-02-19T13:41:26;91273.13;;;17.22;38.63
59274;BME280;45044;41.572;24.730;2023-02-19T13:44:00;91272.41;;;17.51;37.58
59274;BME280;45044;41.572;24.730;2023-02-19T13:46:42;91268.94;;;17.04;37.34
59274;BME280;45044;41.572;24.730;2023-02-19T13:58:33;91263.63;;;17.04;39.15
59274;BME280;45044;41.572;24.730;2023-02-19T14:01:08;91256.16;;;17.32;37.76
59274;BME280;45044;41.572;24.730;2023-02-19T14:06:08;91264.56;;;16.44;38.40
59274;BME280;45044;41.572;24.730;2023-02-19T14:08:49;91269.66;;;16.34;39.34
59274;BME280;45044;41.572;24.730;2023-02-19T14:11:17;91281.31;;;16.20;39.53
59274;BME280;45044;41.572;24.730;2023-02-19T14:14:03;91275.09;;;15.86;39.40
59274;BME280;45044;41.572;24.730;2023-02-19T14:16:53;91263.06;;;15.81;39.94
59274;BME280;45044;41.572;24.730;2023-02-19T14:28:27;91265.75;;;16.02;40.47
59274;BME280;45044;41.572;24.730;2023-02-19T14:31:26;91264.00;;;15.71;40.04
59274;BME280;45044;41.572;24.730;2023-02-19T14:33:58;91259.56;;;15.88;41.16
59274;BME280;45044;41.572;24.730;2023-02-19T14:41:51;91265.03;;;15.98;41.57
59274;BME280;45044;41.572;24.730;2023-02-19T14:44:28;91262.06;;;15.96;42.24
59274;BME280;45044;41.572;24.730;2023-02-19T14:47:07;91260.69;;;15.87;42.28
59274;BME280;45044;41.572;24.730;2023-02-19T14:49:45;91265.28;;;16.07;41.72
59274;BME280;45044;41.572;24.730;2023-02-19T14:52:29;91239.13;;;15.85;41.54
59274;BME280;45044;41.572;24.730;2023-02-19T14:55:05;91265.03;;;15.98;42.07
59274;BME280;45044;41.572;24.730;2023-02-19T14:57:44;91253.53;;;16.08;41.55
59274;BME280;45044;41.572;24.730;2023-02-19T15:00:33;91255.97;;;15.54;41.01
59274;BME280;45044;41.572;24.730;2023-02-19T15:03:04;91266.34;;;15.45;42.55
59274;BME280;45044;41.572;24.730;2023-02-19T15:05:33;91264.56;;;15.38;43.45
59274;BME280;45044;41.572;24.730;2023-02-19T15:08:06;91268.31;;;15.41;43.61
59274;BME280;45044;41.572;24.730;2023-02-19T15:10:35;91257.22;;;15.26;44.63
59274;BME280;45044;41.572;24.730;2023-02-19T15:13:04;91268.41;;;14.85;42.16
59274;BME280;45044;41.572;24.730;2023-02-19T15:15:34;91272.81;;;14.68;43.82
59274;BME280;45044;41.572;24.730;2023-02-19T15:18:03;91266.13;;;14.29;44.69
59274;BME280;45044;41.572;24.730;2023-02-19T15:20:35;91255.53;;;14.29;44.50